Time;durP1;ratioP1;P1;durP2;ratioP2;P2;SDS_P1;SDS_P2;PMS_P1;PMS_P2;Temp;Humidity;BMP_temperature;BMP_pressure;BME280_temperature;BME280_humidity;BME280_pressure;Samples;Min_cycle;Max_cycle;Signal;HPM_P1;HPM_P2
2022/11/23 00:01:32;;;;;;;52.67;18.23;;;2.70;78.40;;;;;;4120717;28;20105;-87
2022/11/23 00:03:54;;;;;;;44.95;18.65;;;2.90;78.60;;;;;;4061027;29;20143;-86
2022/11/23 00:06:14;;;;;;;43.35;18.65;;;2.80;78.40;;;;;;4056874;29;20043;-86
2022/11/23 00:08:33;;;;;;;44.47;17.60;;;2.80;78.40;;;;;;4054718;29;20043;-86
2022/11/23 00:10:56;;;;;;;52.60;19.33;;;2.90;78.50;;;;;;4058182;29;20039;-86
2022/11/23 00:13:15;;;;;;;49.15;18.48;;;2.80;78.40;;;;;;4057578;29;20114;-86
2022/11/23 00:15:35;;;;;;;46.08;17.83;;;2.80;78.40;;;;;;4058293;29;20109;-86
2022/11/23 00:17:54;;;;;;;53.72;18.52;;;2.80;78.50;;;;;;4044169;29;20068;-87
2022/11/23 00:20:14;;;;;;;44.20;18.45;;;2.90;78.40;;;;;;4055911;29;20048;-88
2022/11/23 00:22:34;;;;;;;49.97;18.92;;;2.80;78.40;;;;;;4060094;29;20431;-87
2022/11/23 00:24:53;;;;;;;49.92;19.92;;;2.80;78.40;;;;;;4041597;29;20096;-87
2022/11/23 00:27:12;;;;;;;55.45;18.67;;;2.80;78.50;;;;;;4048134;29;20048;-86
2022/11/23 00:29:32;;;;;;;48.97;18.02;;;2.80;78.50;;;;;;4057355;29;20043;-86
2022/11/23 00:31:51;;;;;;;43.58;17.95;;;2.80;78.50;;;;;;4055846;29;20213;-86
2022/11/23 00:34:10;;;;;;;48.58;18.90;;;2.90;78.50;;;;;;4059204;29;20075;-86
2022/11/23 00:36:29;;;;;;;45.33;17.27;;;2.90;78.40;;;;;;4042065;29;20071;-85
2022/11/23 00:38:49;;;;;;;47.10;18.17;;;2.90;78.40;;;;;;4043452;29;20035;-86
2022/11/23 00:41:14;;;;;;;45.35;17.88;;;2.90;78.40;;;;;;4110355;28;20463;-86
2022/11/23 00:43:33;;;;;;;45.08;18.10;;;2.90;78.40;;;;;;4110634;28;20038;-86
2022/11/23 00:46:09;;;;;;;53.97;20.55;;;2.90;78.30;;;;;;4121138;28;20054;-86
2022/11/23 00:48:29;;;;;;;45.85;18.10;;;2.90;78.30;;;;;;4121984;28;20404;-85
2022/11/23 00:50:48;;;;;;;43.53;17.65;;;2.90;78.30;;;;;;4106310;28;20094;-86
2022/11/23 00:53:07;;;;;;;44.30;17.60;;;2.90;78.30;;;;;;4124218;28;20041;-86
2022/11/23 00:55:26;;;;;;;42.38;17.38;;;3.00;78.40;;;;;;4122675;28;20359;-86
2022/11/23 00:57:45;;;;;;;45.33;17.75;;;2.90;78.30;;;;;;4109976;28;20053;-86
2022/11/23 01:00:06;;;;;;;45.53;17.23;;;3.00;78.50;;;;;;4119924;28;20108;-86
2022/11/23 01:02:25;;;;;;;45.65;17.65;;;2.90;78.40;;;;;;4120094;28;20049;-86
2022/11/23 01:04:44;;;;;;;45.05;18.63;;;2.90;78.40;;;;;;4121155;28;20096;-86
2022/11/23 01:07:03;;;;;;;41.08;17.70;;;2.90;78.40;;;;;;4118640;28;20093;-86
2022/11/23 01:09:25;;;;;;;48.58;17.75;;;2.90;78.50;;;;;;4122105;28;20061;-85
2022/11/23 01:11:45;;;;;;;50.85;17.60;;;2.90;78.50;;;;;;4109795;28;20061;-86
2022/11/23 01:14:04;;;;;;;48.50;19.13;;;2.90;78.50;;;;;;4109676;28;20074;-86
2022/11/23 01:16:33;;;;;;;43.97;17.45;;;2.90;78.50;;;;;;4100014;28;20507;-85
2022/11/23 01:18:53;;;;;;;48.95;18.05;;;2.90;78.50;;;;;;4120642;28;20069;-87
2022/11/23 01:21:12;;;;;;;45.75;18.60;;;2.90;78.50;;;;;;4109843;28;20041;-86
2022/11/23 01:23:32;;;;;;;50.78;17.95;;;2.90;78.40;;;;;;4119613;28;20170;-86
2022/11/23 01:25:51;;;;;;;45.85;17.65;;;2.90;78.30;;;;;;4120276;28;20459;-85
2022/11/23 01:28:10;;;;;;;55.38;20.90;;;3.00;78.40;;;;;;4117161;28;20033;-86
2022/11/23 01:30:29;;;;;;;47.72;19.27;;;2.90;78.30;;;;;;4120864;28;20142;-87
2022/11/23 01:32:48;;;;;;;53.22;19.08;;;2.90;78.20;;;;;;4106404;28;20045;-84
2022/11/23 01:35:08;;;;;;;50.40;19.08;;;2.90;78.20;;;;;;4121226;28;20077;-86
2022/11/23 01:37:27;;;;;;;50.90;19.38;;;2.90;78.30;;;;;;4107993;28;20081;-85
2022/11/23 01:39:47;;;;;;;58.78;19.85;;;2.90;78.30;;;;;;4115825;28;20129;-87
2022/11/23 01:42:07;;;;;;;51.75;19.17;;;2.90;78.30;;;;;;4103698;28;20606;-86
2022/11/23 01:44:33;;;;;;;54.40;20.38;;;2.90;78.30;;;;;;4119479;28;20442;-85
2022/11/23 01:46:53;;;;;;;46.25;18.58;;;2.90;78.40;;;;;;4106826;28;20508;-86
2022/11/23 01:49:12;;;;;;;48.65;19.05;;;2.90;78.50;;;;;;4117314;28;20088;-86
2022/11/23 01:51:40;;;;;;;49.42;18.48;;;2.90;78.50;;;;;;4117273;28;20217;-86
2022/11/23 01:54:20;;;;;;;48.47;18.85;;;2.90;78.60;;;;;;4121521;28;20048;-84
2022/11/23 01:56:47;;;;;;;49.67;18.17;;;2.90;78.60;;;;;;4107632;28;20542;-87
2022/11/23 01:59:11;;;;;;;50.88;18.90;;;2.90;78.60;;;;;;4116076;28;20809;-85
2022/11/23 02:01:31;;;;;;;49.83;17.95;;;2.90;78.60;;;;;;4119208;28;20125;-88
2022/11/23 02:03:52;;;;;;;46.65;19.13;;;2.90;78.60;;;;;;4105215;28;20118;-87
2022/11/23 02:06:16;;;;;;;45.58;19.13;;;2.90;78.60;;;;;;4108790;28;20052;-85
2022/11/23 02:08:35;;;;;;;;;;;2.90;78.70;;;;;;4104039;28;20064;-86
2022/11/23 02:10:56;;;;;;;47.88;17.73;;;2.90;79.60;;;;;;4117158;28;20374;-86
2022/11/23 02:13:16;;;;;;;43.30;18.02;;;2.90;78.60;;;;;;4122774;28;20034;-86
2022/11/23 02:15:36;;;;;;;49.95;18.17;;;2.90;78.60;;;;;;4108261;28;20085;-85
2022/11/23 02:17:57;;;;;;;46.85;17.92;;;2.90;78.70;;;;;;4110007;28;20105;-87
2022/11/23 02:20:17;;;;;;;45.50;18.70;;;3.00;78.90;;;;;;4102316;28;20045;-86
2022/11/23 02:23:07;;;;;;;44.60;17.98;;;3.00;79.00;;;;;;4104889;28;20406;-87
2022/11/23 02:25:44;;;;;;;46.78;17.10;;;2.90;79.00;;;;;;4106128;28;20041;-86
2022/11/23 02:28:04;;;;;;;49.17;17.88;;;3.00;79.10;;;;;;4099626;28;20070;-87
2022/11/23 02:30:24;;;;;;;45.10;18.50;;;3.00;79.00;;;;;;4104060;28;20082;-86
2022/11/23 02:32:43;;;;;;;43.13;17.48;;;3.00;79.10;;;;;;4106922;28;20125;-87
2022/11/23 02:35:02;;;;;;;49.72;18.50;;;3.00;79.10;;;;;;4104370;28;20072;-85
2022/11/23 02:37:22;;;;;;;50.75;18.27;;;3.10;79.20;;;;;;4104014;28;20128;-86
2022/11/23 02:39:47;;;;;;;47.10;17.73;;;3.10;79.20;;;;;;4123757;28;20041;-85
2022/11/23 02:42:06;;;;;;;43.95;17.75;;;3.10;79.20;;;;;;4136731;28;20049;-85
2022/11/23 02:44:39;;;;;;;47.10;17.52;;;3.10;79.20;;;;;;4125554;28;20122;-86
2022/11/23 02:46:58;;;;;;;47.25;17.70;;;3.10;79.20;;;;;;4110431;28;20033;-86
2022/11/23 02:49:17;;;;;;;39.97;17.27;;;3.10;79.20;;;;;;4119056;28;20089;-86
2022/11/23 02:51:37;;;;;;;40.35;17.27;;;3.10;79.10;;;;;;4106845;28;20038;-86
2022/11/23 02:53:55;;;;;;;43.97;17.35;;;3.20;79.20;;;;;;4103909;28;21709;-86
2022/11/23 02:56:15;;;;;;;47.10;19.08;;;3.20;79.20;;;;;;4106256;28;20059;-85
2022/11/23 02:58:34;;;;;;;42.30;17.33;;;3.20;79.20;;;;;;4116506;28;20049;-85
2022/11/23 03:00:53;;;;;;;49.95;18.73;;;3.20;79.20;;;;;;4114781;28;20108;-86
2022/11/23 03:03:12;;;;;;;38.15;16.15;;;3.20;79.10;;;;;;4100363;28;20130;-85
2022/11/23 03:05:31;;;;;;;44.47;16.83;;;3.20;79.20;;;;;;4119684;28;20045;-86
2022/11/23 03:07:51;;;;;;;43.38;17.70;;;3.20;79.20;;;;;;4116803;28;20033;-87
2022/11/23 03:10:10;;;;;;;44.25;17.48;;;3.20;79.20;;;;;;4119058;28;20042;-87
2022/11/23 03:12:29;;;;;;;44.83;18.15;;;3.20;79.10;;;;;;4109076;28;20118;-86
2022/11/23 03:14:48;;;;;;;41.05;17.85;;;3.30;79.20;;;;;;4103777;28;20046;-86
2022/11/23 03:17:07;;;;;;;46.22;17.35;;;3.30;79.20;;;;;;4101985;28;20143;-86
2022/11/23 03:19:27;;;;;;;46.42;16.85;;;3.30;79.20;;;;;;4114406;28;20093;-86
2022/11/23 03:21:46;;;;;;;44.65;18.42;;;3.30;79.20;;;;;;4112738;28;20074;-86
2022/11/23 03:24:05;;;;;;;38.10;16.25;;;3.30;79.10;;;;;;4116795;28;20410;-85
2022/11/23 03:26:24;;;;;;;50.40;19.17;;;3.30;79.10;;;;;;4117684;28;20049;-86
2022/11/23 03:28:43;;;;;;;42.72;17.27;;;3.30;79.10;;;;;;4118100;28;20069;-86
2022/11/23 03:31:02;;;;;;;46.92;17.95;;;3.30;79.10;;;;;;4104414;28;20094;-86
2022/11/23 03:33:22;;;;;;;45.10;17.58;;;3.30;79.70;;;;;;4113805;28;20562;-86
2022/11/23 03:35:41;;;;;;;42.95;16.83;;;3.30;79.00;;;;;;4114744;28;20533;-86
2022/11/23 03:38:01;;;;;;;42.67;17.95;;;3.30;79.00;;;;;;4104100;28;20407;-86
2022/11/23 03:40:19;;;;;;;39.78;17.40;;;3.30;79.00;;;;;;4114072;28;20080;-86
2022/11/23 03:42:39;;;;;;;50.20;17.27;;;3.30;79.00;;;;;;4103274;28;20577;-86
2022/11/23 03:44:59;;;;;;;47.95;16.58;;;3.30;79.00;;;;;;4113142;28;20435;-86
2022/11/23 03:47:18;;;;;;;42.75;17.33;;;3.30;79.00;;;;;;4102445;28;20066;-85
2022/11/23 03:49:37;;;;;;;43.20;17.63;;;3.40;79.00;;;;;;4107350;28;20070;-86
2022/11/23 03:51:56;;;;;;;42.70;18.10;;;3.40;79.00;;;;;;4110967;28;20053;-86
2022/11/23 03:54:15;;;;;;;45.13;17.90;;;3.40;79.00;;;;;;4113897;28;20057;-85
2022/11/23 03:56:34;;;;;;;42.05;17.67;;;3.40;78.90;;;;;;4117334;28;20073;-86
2022/11/23 03:58:53;;;;;;;47.10;19.00;;;3.40;79.00;;;;;;4108636;28;20120;-86
2022/11/23 04:01:13;;;;;;;43.85;18.00;;;3.40;79.00;;;;;;4113875;28;20042;-86
2022/11/23 04:03:32;;;;;;;47.53;18.85;;;3.40;78.90;;;;;;4117408;28;20044;-86
2022/11/23 04:05:52;;;;;;;44.35;17.60;;;3.40;78.90;;;;;;4118016;28;20041;-85
2022/11/23 04:08:11;;;;;;;39.95;16.27;;;3.40;78.80;;;;;;4126002;28;20049;-85
2022/11/23 04:10:30;;;;;;;40.08;17.33;;;3.40;78.70;;;;;;4123228;28;20042;-86
2022/11/23 04:12:51;;;;;;;38.55;16.23;;;3.40;78.70;;;;;;4129587;28;20044;-86
2022/11/23 04:15:11;;;;;;;40.97;16.13;;;3.30;78.60;;;;;;4131614;28;20061;-86
2022/11/23 04:17:30;;;;;;;40.35;16.27;;;3.40;78.70;;;;;;4113296;28;20455;-85
2022/11/23 04:19:49;;;;;;;42.92;17.10;;;3.30;79.50;;;;;;4123970;28;20034;-86
2022/11/23 04:22:08;;;;;;;39.92;17.05;;;3.30;78.80;;;;;;4111023;28;20078;-86
2022/11/23 04:24:27;;;;;;;37.80;17.08;;;3.30;78.80;;;;;;4123923;28;20046;-84
2022/11/23 04:26:46;;;;;;;39.08;17.10;;;3.30;78.80;;;;;;4122015;28;20097;-86
2022/11/23 04:29:05;;;;;;;39.22;15.98;;;3.30;78.80;;;;;;4105258;28;20045;-86
2022/11/23 04:31:24;;;;;;;43.88;17.27;;;3.30;78.80;;;;;;4118594;28;20061;-87
2022/11/23 04:33:43;;;;;;;45.15;15.90;;;3.40;78.80;;;;;;4109973;28;20050;-86
2022/11/23 04:36:03;;;;;;;42.72;16.08;;;3.30;78.80;;;;;;4110582;28;20174;-86
2022/11/23 04:38:22;;;;;;;40.47;16.83;;;3.30;78.80;;;;;;4119102;28;20045;-86
2022/11/23 04:40:42;;;;;;;48.70;18.02;;;3.40;78.90;;;;;;4103281;28;20081;-86
2022/11/23 04:43:02;;;;;;;42.92;17.33;;;3.30;78.80;;;;;;4107790;28;20045;-85
2022/11/23 04:45:21;;;;;;;37.22;16.33;;;3.30;78.80;;;;;;4117567;28;20037;-85
2022/11/23 04:47:40;;;;;;;38.78;15.93;;;3.30;78.90;;;;;;4119952;28;20456;-87
2022/11/23 04:50:01;;;;;;;39.67;16.48;;;3.30;78.90;;;;;;4103437;28;20177;-87
2022/11/23 04:52:20;;;;;;;40.03;16.55;;;3.30;79.00;;;;;;4104816;28;20128;-86
2022/11/23 04:54:39;;;;;;;41.95;16.23;;;3.30;79.10;;;;;;4109638;28;20094;-87
2022/11/23 04:56:58;;;;;;;41.53;15.90;;;3.40;79.20;;;;;;4122830;28;20033;-87
2022/11/23 04:59:18;;;;;;;41.15;17.10;;;3.40;79.10;;;;;;4117071;28;20133;-86
2022/11/23 05:01:37;;;;;;;36.92;16.02;;;3.40;79.20;;;;;;4117597;28;20085;-86
2022/11/23 05:03:56;;;;;;;37.88;16.05;;;3.40;79.20;;;;;;4108348;28;20113;-85
2022/11/23 05:06:16;;;;;;;40.72;17.15;;;3.40;79.20;;;;;;4120247;28;20061;-86
2022/11/23 05:08:36;;;;;;;41.92;16.08;;;3.50;79.30;;;;;;4108606;28;20078;-86
2022/11/23 05:10:55;;;;;;;40.47;16.92;;;3.40;79.20;;;;;;4104277;28;20106;-86
2022/11/23 05:13:15;;;;;;;42.97;17.08;;;3.40;79.20;;;;;;4123537;28;20093;-86
2022/11/23 05:15:34;;;;;;;42.20;16.63;;;3.40;79.10;;;;;;4118983;28;20146;-86
2022/11/23 05:17:53;;;;;;;46.13;17.15;;;3.60;79.30;;;;;;4119440;28;20049;-87
2022/11/23 05:20:10;;;;;;;39.60;16.40;;;3.40;79.20;;;;;;4114532;28;20060;-86
2022/11/23 05:22:29;;;;;;;39.10;17.35;;;3.50;79.20;;;;;;4118150;28;20041;-86
2022/11/23 05:24:49;;;;;;;41.88;17.10;;;3.40;79.10;;;;;;4112624;28;20129;-87
2022/11/23 05:27:08;;;;;;;45.20;16.80;;;3.50;79.20;;;;;;4106394;28;20041;-85
2022/11/23 05:29:27;;;;;;;44.10;15.98;;;3.50;79.20;;;;;;4117468;28;20037;-86
2022/11/23 05:31:46;;;;;;;38.72;16.83;;;3.40;79.20;;;;;;4120951;28;20112;-87
2022/11/23 05:34:05;;;;;;;42.65;16.73;;;3.50;79.30;;;;;;4120952;28;20049;-86
2022/11/23 05:36:25;;;;;;;44.03;16.73;;;3.50;79.30;;;;;;4120737;28;20042;-86
2022/11/23 05:38:44;;;;;;;43.65;16.55;;;3.60;79.30;;;;;;4109289;28;20882;-86
2022/11/23 05:41:03;;;;;;;41.40;16.48;;;3.60;79.30;;;;;;4121611;28;20109;-86
2022/11/23 05:43:22;;;;;;;40.15;16.35;;;3.60;79.40;;;;;;4106229;28;20619;-85
2022/11/23 05:45:41;;;;;;;42.65;17.13;;;3.60;79.30;;;;;;4124920;28;20053;-84
2022/11/23 05:48:00;;;;;;;42.20;17.00;;;3.60;79.30;;;;;;4122054;28;20550;-86
2022/11/23 05:50:20;;;;;;;42.17;16.58;;;3.60;79.30;;;;;;4121726;28;20050;-85
2022/11/23 05:52:39;;;;;;;35.55;15.90;;;3.60;79.30;;;;;;4115591;28;20495;-86
2022/11/23 05:54:58;;;;;;;45.42;17.85;;;3.60;79.40;;;;;;4122909;28;20042;-87
2022/11/23 05:57:18;;;;;;;41.22;17.33;;;3.70;79.40;;;;;;4115683;28;20040;-86
2022/11/23 05:59:37;;;;;;;41.60;17.35;;;3.70;80.20;;;;;;4121339;28;20189;-86
2022/11/23 06:01:56;;;;;;;36.67;17.05;;;3.70;79.40;;;;;;4119843;28;20037;-86
2022/11/23 06:04:15;;;;;;;38.30;16.83;;;3.70;79.40;;;;;;4105326;28;20065;-85
2022/11/23 06:06:34;;;;;;;35.30;15.45;;;3.70;79.40;;;;;;4103958;28;20127;-86
2022/11/23 06:08:53;;;;;;;42.25;16.55;;;3.70;79.40;;;;;;4111550;28;20134;-86
2022/11/23 06:11:12;;;;;;;45.40;17.05;;;3.70;79.40;;;;;;4117999;28;20033;-86
2022/11/23 06:13:31;;;;;;;37.65;15.65;;;3.70;79.40;;;;;;4120418;28;20593;-86
2022/11/23 06:15:50;;;;;;;41.55;16.92;;;3.80;79.50;;;;;;4108613;28;20427;-85
2022/11/23 06:18:09;;;;;;;37.97;16.65;;;3.70;79.40;;;;;;4120440;28;20077;-87
2022/11/23 06:20:29;;;;;;;34.60;15.57;;;3.80;79.50;;;;;;4107800;28;20091;-85
2022/11/23 06:22:55;;;;;;;45.17;17.00;;;3.80;79.40;;;;;;4103926;28;20050;-87
2022/11/23 06:25:14;;;;;;;42.20;16.17;;;3.80;79.40;;;;;;4117592;28;20533;-86
2022/11/23 06:27:33;;;;;;;40.25;17.25;;;3.80;79.40;;;;;;4108542;28;20122;-85
2022/11/23 06:29:52;;;;;;;50.08;17.45;;;3.80;79.40;;;;;;4119738;28;20140;-86
2022/11/23 06:32:12;;;;;;;42.15;16.98;;;3.80;79.40;;;;;;4111555;28;20109;-86
2022/11/23 06:34:31;;;;;;;38.92;16.23;;;3.90;79.40;;;;;;4107251;28;20119;-86
2022/11/23 06:36:50;;;;;;;40.65;16.40;;;3.90;79.40;;;;;;4106129;28;20049;-85
2022/11/23 06:39:09;;;;;;;43.35;18.15;;;3.90;80.10;;;;;;4104271;28;20070;-86
2022/11/23 06:41:28;;;;;;;43.17;17.83;;;3.90;79.50;;;;;;4100004;28;20102;-86
2022/11/23 06:43:47;;;;;;;39.50;16.45;;;3.90;79.40;;;;;;4115287;28;20414;-86
2022/11/23 06:46:06;;;;;;;41.25;17.05;;;3.90;79.40;;;;;;4107189;28;20145;-86
2022/11/23 06:48:25;;;;;;;41.30;16.00;;;3.90;79.40;;;;;;4117038;28;20054;-87
2022/11/23 06:50:45;;;;;;;41.75;16.80;;;3.90;79.40;;;;;;4115320;28;20061;-86
2022/11/23 06:53:04;;;;;;;43.90;16.83;;;3.90;79.50;;;;;;4116582;28;20038;-86
2022/11/23 06:55:24;;;;;;;33.40;15.07;;;3.90;79.40;;;;;;4123265;28;20127;-86
2022/11/23 06:57:43;;;;;;;36.80;15.98;;;3.90;79.40;;;;;;4115932;28;20106;-87
2022/11/23 07:00:04;;;;;;;35.10;15.45;;;3.90;79.40;;;;;;4117299;28;20093;-86
2022/11/23 07:02:23;;;;;;;36.60;15.65;;;3.90;79.50;;;;;;4117458;28;20049;-85
2022/11/23 07:04:42;;;;;;;32.15;15.25;;;3.90;79.50;;;;;;4115177;28;20053;-84
2022/11/23 07:07:01;;;;;;;37.88;15.60;;;3.90;79.50;;;;;;4102602;28;20077;-85
2022/11/23 07:09:21;;;;;;;40.10;16.35;;;3.90;79.60;;;;;;4117150;28;20070;-86
2022/11/23 07:11:41;;;;;;;37.53;16.42;;;3.90;79.60;;;;;;4105167;28;20105;-85
2022/11/23 07:14:00;;;;;;;33.60;15.68;;;4.00;79.80;;;;;;4113121;28;20138;-86
2022/11/23 07:16:19;;;;;;;39.08;15.48;;;3.90;79.70;;;;;;4115748;28;20062;-86
2022/11/23 07:18:38;;;;;;;35.08;15.45;;;4.00;79.80;;;;;;4103219;28;20089;-86
2022/11/23 07:20:58;;;;;;;35.33;16.05;;;4.00;79.80;;;;;;4114961;28;20045;-86
2022/11/23 07:23:17;;;;;;;36.28;15.38;;;4.00;79.90;;;;;;4119226;28;20053;-86
2022/11/23 07:25:37;;;;;;;38.30;15.10;;;4.00;79.90;;;;;;4116115;28;20049;-87
2022/11/23 07:27:58;;;;;;;37.17;15.70;;;4.00;79.90;;;;;;4105074;28;20434;-86
2022/11/23 07:30:17;;;;;;;32.75;14.80;;;4.00;79.90;;;;;;4114075;28;20041;-86
2022/11/23 07:32:36;;;;;;;35.92;15.05;;;4.10;80.00;;;;;;4097977;28;21093;-87
2022/11/23 07:34:55;;;;;;;33.55;15.07;;;4.10;80.00;;;;;;4119083;28;20107;-87
2022/11/23 07:37:14;;;;;;;34.08;15.43;;;4.10;80.00;;;;;;4104728;28;20098;-87
2022/11/23 07:39:33;;;;;;;37.75;15.02;;;4.20;80.10;;;;;;4101271;28;20143;-87
2022/11/23 07:41:53;;;;;;;36.08;15.50;;;4.10;80.00;;;;;;4117151;28;20074;-88
2022/11/23 07:44:12;;;;;;;35.55;15.20;;;4.10;80.00;;;;;;4114849;28;20049;-88
2022/11/23 07:46:31;;;;;;;35.72;15.25;;;4.10;80.00;;;;;;4110098;28;20215;-87
2022/11/23 07:48:50;;;;;;;38.55;16.08;;;4.10;80.10;;;;;;4117540;28;20120;-88
2022/11/23 07:51:09;;;;;;;31.35;14.38;;;4.20;80.80;;;;;;4102952;28;20114;-88
2022/11/23 07:53:29;;;;;;;37.25;15.20;;;4.20;80.10;;;;;;4118551;28;20037;-87
2022/11/23 07:55:48;;;;;;;35.88;16.05;;;4.20;80.10;;;;;;4117514;28;20057;-86
2022/11/23 07:58:09;;;;;;;34.95;14.88;;;4.20;80.20;;;;;;4118144;28;20050;-88
2022/11/23 08:00:29;;;;;;;29.90;13.10;;;4.20;80.10;;;;;;4104735;28;20565;-88
2022/11/23 08:02:48;;;;;;;33.75;14.25;;;4.20;80.10;;;;;;4115084;28;20089;-87
2022/11/23 08:05:07;;;;;;;29.67;13.85;;;4.30;80.10;;;;;;4101405;28;20105;-90
2022/11/23 08:07:26;;;;;;;36.40;14.35;;;4.30;80.20;;;;;;4108075;28;20114;-88
2022/11/23 08:09:45;;;;;;;36.63;15.10;;;4.30;80.20;;;;;;4116589;28;20454;-89
2022/11/23 08:12:06;;;;;;;35.88;14.38;;;4.30;80.20;;;;;;4116590;28;20636;-88
2022/11/23 08:14:25;;;;;;;34.35;14.40;;;4.30;80.20;;;;;;4117704;28;20056;-88
2022/11/23 08:16:49;;;;;;;32.35;13.75;;;4.40;80.30;;;;;;4106351;28;20057;-88
2022/11/23 08:19:08;;;;;;;39.42;13.85;;;4.40;80.40;;;;;;4105163;28;20050;-89
2022/11/23 08:21:27;;;;;;;33.25;13.65;;;4.40;80.40;;;;;;4113373;28;20061;-88
2022/11/23 08:23:46;;;;;;;36.00;13.75;;;4.40;80.40;;;;;;4117077;28;20054;-88
2022/11/23 08:26:05;;;;;;;32.72;13.98;;;4.40;80.40;;;;;;4114486;28;20145;-89
2022/11/23 08:28:25;;;;;;;32.58;14.48;;;4.50;80.50;;;;;;4103922;28;20149;-88
2022/11/23 08:30:44;;;;;;;33.38;13.23;;;4.50;80.50;;;;;;4101825;28;20049;-89
2022/11/23 08:33:07;;;;;;;29.20;12.90;;;4.50;80.50;;;;;;4107720;28;20044;-89
2022/11/23 08:35:27;;;;;;;32.75;12.50;;;4.60;80.60;;;;;;4127718;28;20038;-88
2022/11/23 08:37:46;;;;;;;30.83;13.05;;;4.50;80.60;;;;;;4119238;28;20113;-89
2022/11/23 08:40:06;;;;;;;28.52;14.55;;;4.60;80.70;;;;;;4118636;28;20061;-90
2022/11/23 08:42:26;;;;;;;28.33;13.45;;;4.60;80.60;;;;;;4110828;28;20068;-88
2022/11/23 08:44:45;;;;;;;31.33;13.90;;;4.60;80.70;;;;;;4116632;28;20082;-89
2022/11/23 08:47:05;;;;;;;27.70;12.50;;;4.80;80.80;;;;;;4103697;28;20049;-88
2022/11/23 08:49:24;;;;;;;28.17;13.05;;;4.70;80.70;;;;;;4105065;28;20525;-88
2022/11/23 08:51:44;;;;;;;28.58;12.70;;;4.70;80.80;;;;;;4119904;28;21325;-89
2022/11/23 08:54:03;;;;;;;28.38;12.25;;;4.70;80.80;;;;;;4105811;28;20062;-88
2022/11/23 08:56:22;;;;;;;29.90;12.88;;;4.80;80.80;;;;;;4104557;28;20054;-89
2022/11/23 08:58:41;;;;;;;28.70;12.63;;;4.80;80.80;;;;;;4100525;28;20233;-87
2022/11/23 09:01:01;;;;;;;27.23;11.23;;;4.80;80.80;;;;;;4119434;28;20194;-89
2022/11/23 09:03:20;;;;;;;22.77;11.50;;;4.80;80.80;;;;;;4117928;28;20069;-89
2022/11/23 09:05:39;;;;;;;26.98;11.23;;;4.80;80.80;;;;;;4107057;28;20108;-89
2022/11/23 09:08:00;;;;;;;24.50;10.98;;;4.90;80.80;;;;;;4101418;28;20061;-89
2022/11/23 09:10:19;;;;;;;22.45;10.85;;;4.90;80.80;;;;;;4104994;28;20679;-89
2022/11/23 09:12:38;;;;;;;23.42;10.82;;;4.90;80.80;;;;;;4104874;28;20037;-88
2022/11/23 09:14:57;;;;;;;22.90;10.73;;;4.90;80.80;;;;;;4104212;28;20113;-89
2022/11/23 09:17:16;;;;;;;21.38;10.93;;;4.90;80.70;;;;;;4106054;28;20054;-88
2022/11/23 09:19:35;;;;;;;25.17;11.05;;;5.00;80.70;;;;;;4109118;28;20649;-89
2022/11/23 09:21:54;;;;;;;26.23;11.85;;;5.00;80.70;;;;;;4110282;28;20570;-88
2022/11/23 09:24:14;;;;;;;24.50;11.00;;;5.00;80.70;;;;;;4099455;28;20542;-89
2022/11/23 09:26:33;;;;;;;23.23;10.68;;;5.00;81.50;;;;;;4103773;28;20054;-89
2022/11/23 09:28:52;;;;;;;22.25;10.82;;;5.10;80.80;;;;;;4107361;28;20046;-88
2022/11/23 09:31:12;;;;;;;27.38;10.27;;;5.20;80.90;;;;;;4108205;28;20136;-88
2022/11/23 09:33:31;;;;;;;25.38;11.02;;;5.10;80.80;;;;;;4116180;28;20045;-89
2022/11/23 09:35:58;;;;;;;25.42;10.93;;;5.10;80.80;;;;;;4122262;28;20042;-88
2022/11/23 09:38:18;;;;;;;21.00;10.50;;;5.20;80.90;;;;;;4115571;28;20105;-89
2022/11/23 09:40:40;;;;;;;26.52;11.15;;;5.20;80.90;;;;;;4118152;28;20077;-88
2022/11/23 09:43:26;;;;;;;24.85;10.77;;;5.20;80.90;;;;;;4107501;28;20096;-89
2022/11/23 09:45:52;;;;;;;23.50;10.25;;;5.20;81.00;;;;;;4121606;28;20860;-89
2022/11/23 09:48:21;;;;;;;23.55;11.02;;;5.30;81.00;;;;;;4112570;28;20534;-89
2022/11/23 09:50:52;;;;;;;23.85;10.95;;;5.30;81.00;;;;;;4120562;28;20041;-89
2022/11/23 09:53:17;;;;;;;22.25;10.75;;;5.30;80.90;;;;;;4110686;28;20030;-89
2022/11/23 09:55:48;;;;;;;26.08;10.90;;;5.40;80.80;;;;;;4128640;28;20049;-88
2022/11/23 09:58:13;;;;;;;23.63;10.18;;;5.40;80.80;;;;;;4121297;28;20149;-89
2022/11/23 10:00:42;;;;;;;25.70;11.55;;;5.40;80.80;;;;;;4121275;28;20106;-89
2022/11/23 10:03:02;;;;;;;20.42;9.90;;;5.40;80.70;;;;;;4107009;28;20062;-88
2022/11/23 10:05:25;;;;;;;21.33;9.85;;;5.40;80.80;;;;;;4097555;28;20135;-88
2022/11/23 10:08:12;;;;;;;27.10;11.03;;;5.50;80.90;;;;;;4118670;28;20062;-89
2022/11/23 10:11:11;;;;;;;22.08;9.95;;;5.50;80.90;;;;;;4123874;28;20045;-89
2022/11/23 10:13:52;;;;;;;22.17;10.10;;;5.50;80.90;;;;;;4085296;28;20114;-88
2022/11/23 10:16:28;;;;;;;21.00;10.50;;;5.60;80.80;;;;;;4116373;28;20048;-89
2022/11/23 10:19:29;;;;;;;19.88;10.02;;;5.60;80.70;;;;;;4102618;28;20168;-90
2022/11/23 10:22:09;;;;;;;23.38;8.98;;;5.60;80.80;;;;;;4104390;28;20063;-89
2022/11/23 10:24:33;;;;;;;25.80;10.55;;;5.60;80.60;;;;;;4116055;28;20773;-90
2022/11/23 10:26:53;;;;;;;23.10;10.57;;;5.60;80.60;;;;;;4115173;28;20069;-89
2022/11/23 10:29:18;;;;;;;20.75;9.13;;;5.70;80.60;;;;;;4117646;28;20809;-88
2022/11/23 10:31:43;;;;;;;25.75;10.30;;;5.70;80.50;;;;;;4116643;28;20034;-89
2022/11/23 10:34:12;;;;;;;28.13;9.75;;;5.70;80.50;;;;;;4102010;28;20073;-88
2022/11/23 10:36:35;;;;;;;20.27;9.88;;;5.70;80.50;;;;;;4113318;28;20580;-89
2022/11/23 10:38:59;;;;;;;30.88;10.05;;;5.80;80.70;;;;;;4103841;28;20042;-89
2022/11/23 10:41:18;;;;;;;18.55;9.73;;;5.70;80.50;;;;;;4101913;28;20609;-89
2022/11/23 10:43:47;;;;;;;23.65;9.85;;;5.80;80.60;;;;;;4104713;28;20042;-89
2022/11/23 10:46:27;;;;;;;20.60;9.68;;;5.80;80.60;;;;;;4115984;28;20045;-90
2022/11/23 10:48:47;;;;;;;24.58;9.38;;;5.80;80.70;;;;;;4117198;28;20069;-90
2022/11/23 10:51:25;;;;;;;23.40;9.73;;;5.80;80.70;;;;;;4105042;28;20041;-90
2022/11/23 10:53:55;;;;;;;21.02;9.27;;;5.90;80.90;;;;;;4121054;28;20053;-90
2022/11/23 10:56:16;;;;;;;22.42;9.57;;;5.90;80.80;;;;;;4102272;28;20082;-90
2022/11/23 10:58:45;;;;;;;19.92;9.13;;;5.90;80.80;;;;;;4105280;28;20041;-90
2022/11/23 11:01:18;;;;;;;21.58;8.88;;;5.90;80.80;;;;;;4102782;28;20033;-89
2022/11/23 11:03:37;;;;;;;18.52;8.40;;;6.00;80.90;;;;;;4101651;28;20073;-90
2022/11/23 11:05:57;;;;;;;19.25;8.70;;;6.10;80.90;;;;;;4101327;28;20061;-90
2022/11/23 11:08:19;;;;;;;17.33;8.50;;;6.10;80.90;;;;;;4099103;28;20031;-89
2022/11/23 11:10:48;;;;;;;19.05;8.57;;;6.20;80.90;;;;;;4117269;28;20093;-87
2022/11/23 11:13:31;;;;;;;16.52;8.45;;;6.10;81.50;;;;;;4104485;28;20095;-90
2022/11/23 11:15:52;;;;;;;20.13;8.68;;;6.10;80.80;;;;;;4125139;28;20083;-89
2022/11/23 11:18:17;;;;;;;15.98;8.25;;;6.20;80.90;;;;;;4110157;28;20118;-89
2022/11/23 11:20:38;;;;;;;18.05;7.90;;;6.20;80.80;;;;;;4116109;28;20086;-89
2022/11/23 11:23:00;;;;;;;21.20;8.10;;;6.20;80.90;;;;;;4102095;28;20128;-89
2022/11/23 11:25:46;;;;;;;18.58;7.68;;;6.20;80.90;;;;;;4105344;28;20050;-88
2022/11/23 11:28:24;;;;;;;19.85;7.57;;;6.30;80.90;;;;;;4119655;28;20723;-89
2022/11/23 11:30:54;;;;;;;18.70;7.68;;;6.30;80.90;;;;;;4107573;28;20042;-90
2022/11/23 11:33:21;;;;;;;15.35;8.02;;;6.40;80.80;;;;;;4119932;28;20041;-89
2022/11/23 11:35:45;;;;;;;21.05;7.82;;;6.40;80.70;;;;;;4139078;28;20100;-90
2022/11/23 11:38:13;;;;;;;22.42;7.95;;;6.40;80.70;;;;;;4102048;28;20101;-90
2022/11/23 11:40:53;;;;;;;19.98;8.40;;;6.50;80.70;;;;;;4119487;28;20073;-89
2022/11/23 11:43:18;;;;;;;19.92;8.52;;;6.50;80.70;;;;;;4108617;28;20069;-89
2022/11/23 11:45:44;;;;;;;17.60;7.30;;;6.50;80.60;;;;;;4122727;28;21632;-90
2022/11/23 11:48:11;;;;;;;19.33;8.38;;;6.50;80.60;;;;;;4123020;28;20042;-90
2022/11/23 11:50:40;;;;;;;23.95;8.75;;;6.60;80.70;;;;;;4105874;28;20040;-89
2022/11/23 11:53:04;;;;;;;20.00;8.73;;;6.60;80.60;;;;;;4107214;28;20158;-89
2022/11/23 11:55:25;;;;;;;17.75;7.93;;;6.60;80.50;;;;;;4104624;28;20073;-90
2022/11/23 11:58:13;;;;;;;18.30;8.45;;;6.60;80.40;;;;;;4103691;28;20053;-90
2022/11/23 12:00:35;;;;;;;18.70;7.32;;;6.60;80.40;;;;;;4122457;28;20072;-89
2022/11/23 12:03:36;;;;;;;19.48;7.70;;;6.70;80.40;;;;;;4118229;28;20049;-90
2022/11/23 12:06:03;;;;;;;14.85;7.75;;;6.70;80.30;;;;;;4118975;28;20042;-90
2022/11/23 12:08:36;;;;;;;15.77;7.72;;;6.70;80.20;;;;;;4105309;28;20109;-90
2022/11/23 12:10:59;;;;;;;14.77;7.35;;;6.80;80.20;;;;;;4117820;28;20156;-90